sensor_id;sensor_type;location;lat;lon;timestamp;P1;durP1;ratioP1;P2;durP2;ratioP2
62796;SDS011;48839;48.546;-4.178;2024-03-08T00:01:20;3.88;;;3.30;;
62796;SDS011;48839;48.546;-4.178;2024-03-08T00:03:46;5.75;;;3.75;;
62796;SDS011;48839;48.546;-4.178;2024-03-08T00:06:13;7.57;;;3.65;;
62796;SDS011;48839;48.546;-4.178;2024-03-08T00:08:39;5.03;;;4.03;;
62796;SDS011;48839;48.546;-4.178;2024-03-08T00:11:05;4.60;;;3.58;;
62796;SDS011;48839;48.546;-4.178;2024-03-08T00:13:33;7.18;;;4.32;;
62796;SDS011;48839;48.546;-4.178;2024-03-08T00:15:59;5.75;;;3.80;;
62796;SDS011;48839;48.546;-4.178;2024-03-08T00:18:25;5.63;;;3.72;;
62796;SDS011;48839;48.546;-4.178;2024-03-08T00:20:52;6.18;;;4.03;;
62796;SDS011;48839;48.546;-4.178;2024-03-08T00:23:18;4.43;;;3.60;;
62796;SDS011;48839;48.546;-4.178;2024-03-08T00:25:44;6.88;;;4.03;;
62796;SDS011;48839;48.546;-4.178;2024-03-08T00:28:10;6.65;;;3.92;;
62796;SDS011;48839;48.546;-4.178;2024-03-08T00:30:40;5.88;;;4.05;;
62796;SDS011;48839;48.546;-4.178;2024-03-08T00:33:07;7.03;;;4.32;;
62796;SDS011;48839;48.546;-4.178;2024-03-08T00:35:34;8.18;;;5.13;;
62796;SDS011;48839;48.546;-4.178;2024-03-08T00:38:00;4.68;;;3.30;;
62796;SDS011;48839;48.546;-4.178;2024-03-08T00:40:27;7.57;;;4.07;;
62796;SDS011;48839;48.546;-4.178;2024-03-08T00:42:54;4.25;;;3.30;;
62796;SDS011;48839;48.546;-4.178;2024-03-08T00:45:20;5.55;;;4.15;;
62796;SDS011;48839;48.546;-4.178;2024-03-08T00:47:48;6.80;;;4.00;;
62796;SDS011;48839;48.546;-4.178;2024-03-08T00:50:15;7.28;;;4.82;;
62796;SDS011;48839;48.546;-4.178;2024-03-08T00:52:41;6.95;;;3.85;;
62796;SDS011;48839;48.546;-4.178;2024-03-08T00:55:07;7.80;;;3.80;;
62796;SDS011;48839;48.546;-4.178;2024-03-08T00:57:35;6.22;;;4.32;;
62796;SDS011;48839;48.546;-4.178;2024-03-08T01:00:03;5.53;;;3.72;;
62796;SDS011;48839;48.546;-4.178;2024-03-08T01:02:32;6.25;;;3.63;;
62796;SDS011;48839;48.546;-4.178;2024-03-08T01:05:00;5.55;;;3.65;;
62796;SDS011;48839;48.546;-4.178;2024-03-08T01:07:26;6.90;;;4.03;;
62796;SDS011;48839;48.546;-4.178;2024-03-08T01:09:53;7.10;;;4.63;;
62796;SDS011;48839;48.546;-4.178;2024-03-08T01:12:19;7.55;;;4.13;;
62796;SDS011;48839;48.546;-4.178;2024-03-08T01:14:45;6.55;;;4.22;;
62796;SDS011;48839;48.546;-4.178;2024-03-08T01:17:11;6.57;;;4.07;;
62796;SDS011;48839;48.546;-4.178;2024-03-08T01:19:38;7.28;;;4.63;;
62796;SDS011;48839;48.546;-4.178;2024-03-08T01:22:04;5.78;;;4.13;;
62796;SDS011;48839;48.546;-4.178;2024-03-08T01:24:30;6.70;;;3.83;;
62796;SDS011;48839;48.546;-4.178;2024-03-08T01:26:56;6.30;;;4.22;;
62796;SDS011;48839;48.546;-4.178;2024-03-08T01:29:23;6.50;;;4.15;;
62796;SDS011;48839;48.546;-4.178;2024-03-08T01:31:49;5.45;;;4.28;;
62796;SDS011;48839;48.546;-4.178;2024-03-08T01:34:17;7.70;;;4.22;;
62796;SDS011;48839;48.546;-4.178;2024-03-08T01:36:43;7.80;;;4.00;;
62796;SDS011;48839;48.546;-4.178;2024-03-08T01:39:10;6.38;;;4.60;;
62796;SDS011;48839;48.546;-4.178;2024-03-08T01:41:36;7.68;;;4.47;;
62796;SDS011;48839;48.546;-4.178;2024-03-08T01:44:03;8.07;;;5.15;;
62796;SDS011;48839;48.546;-4.178;2024-03-08T01:46:30;5.95;;;4.85;;
62796;SDS011;48839;48.546;-4.178;2024-03-08T01:48:57;5.32;;;3.55;;
62796;SDS011;48839;48.546;-4.178;2024-03-08T01:51:23;5.25;;;4.43;;
62796;SDS011;48839;48.546;-4.178;2024-03-08T01:53:49;7.50;;;4.07;;
62796;SDS011;48839;48.546;-4.178;2024-03-08T01:56:15;6.38;;;4.20;;
62796;SDS011;48839;48.546;-4.178;2024-03-08T01:58:43;5.95;;;3.75;;
62796;SDS011;48839;48.546;-4.178;2024-03-08T02:01:11;8.00;;;4.05;;
62796;SDS011;48839;48.546;-4.178;2024-03-08T02:03:41;6.53;;;3.97;;
62796;SDS011;48839;48.546;-4.178;2024-03-08T02:06:11;6.45;;;4.25;;
62796;SDS011;48839;48.546;-4.178;2024-03-08T02:08:38;6.75;;;4.47;;
62796;SDS011;48839;48.546;-4.178;2024-03-08T02:11:04;8.40;;;4.85;;
62796;SDS011;48839;48.546;-4.178;2024-03-08T02:13:31;5.68;;;3.85;;
62796;SDS011;48839;48.546;-4.178;2024-03-08T02:15:57;8.23;;;4.65;;
62796;SDS011;48839;48.546;-4.178;2024-03-08T02:18:28;8.02;;;4.68;;
62796;SDS011;48839;48.546;-4.178;2024-03-08T02:20:58;8.00;;;4.30;;
62796;SDS011;48839;48.546;-4.178;2024-03-08T02:23:24;9.40;;;4.93;;
62796;SDS011;48839;48.546;-4.178;2024-03-08T02:25:51;6.35;;;4.60;;
62796;SDS011;48839;48.546;-4.178;2024-03-08T02:28:18;9.75;;;4.93;;
62796;SDS011;48839;48.546;-4.178;2024-03-08T02:30:44;7.40;;;4.65;;
62796;SDS011;48839;48.546;-4.178;2024-03-08T02:33:14;7.43;;;5.20;;
62796;SDS011;48839;48.546;-4.178;2024-03-08T02:35:43;7.15;;;5.07;;
62796;SDS011;48839;48.546;-4.178;2024-03-08T02:38:16;7.35;;;4.85;;
62796;SDS011;48839;48.546;-4.178;2024-03-08T02:40:42;6.82;;;4.50;;
62796;SDS011;48839;48.546;-4.178;2024-03-08T02:43:11;7.53;;;4.88;;
62796;SDS011;48839;48.546;-4.178;2024-03-08T02:45:37;6.53;;;4.63;;
62796;SDS011;48839;48.546;-4.178;2024-03-08T02:48:03;8.70;;;5.15;;
62796;SDS011;48839;48.546;-4.178;2024-03-08T02:50:31;7.55;;;4.55;;
62796;SDS011;48839;48.546;-4.178;2024-03-08T02:52:58;8.40;;;5.38;;
62796;SDS011;48839;48.546;-4.178;2024-03-08T02:55:24;8.48;;;5.47;;
62796;SDS011;48839;48.546;-4.178;2024-03-08T02:57:51;8.85;;;5.47;;
62796;SDS011;48839;48.546;-4.178;2024-03-08T03:00:17;9.07;;;5.03;;
62796;SDS011;48839;48.546;-4.178;2024-03-08T03:02:44;9.35;;;5.05;;
62796;SDS011;48839;48.546;-4.178;2024-03-08T03:05:11;6.20;;;4.65;;
62796;SDS011;48839;48.546;-4.178;2024-03-08T03:07:37;9.13;;;4.80;;
62796;SDS011;48839;48.546;-4.178;2024-03-08T03:10:04;8.23;;;4.30;;
62796;SDS011;48839;48.546;-4.178;2024-03-08T03:12:32;5.75;;;4.28;;
62796;SDS011;48839;48.546;-4.178;2024-03-08T03:14:58;8.07;;;4.63;;
62796;SDS011;48839;48.546;-4.178;2024-03-08T03:17:25;8.23;;;4.68;;
62796;SDS011;48839;48.546;-4.178;2024-03-08T03:19:52;5.90;;;4.28;;
62796;SDS011;48839;48.546;-4.178;2024-03-08T03:22:18;8.48;;;4.80;;
62796;SDS011;48839;48.546;-4.178;2024-03-08T03:24:45;5.95;;;4.50;;
62796;SDS011;48839;48.546;-4.178;2024-03-08T03:27:16;7.03;;;4.15;;
62796;SDS011;48839;48.546;-4.178;2024-03-08T03:29:43;6.80;;;4.03;;
62796;SDS011;48839;48.546;-4.178;2024-03-08T03:32:14;8.02;;;4.60;;
62796;SDS011;48839;48.546;-4.178;2024-03-08T03:34:41;6.50;;;4.65;;
62796;SDS011;48839;48.546;-4.178;2024-03-08T03:37:09;8.95;;;4.88;;
62796;SDS011;48839;48.546;-4.178;2024-03-08T03:39:38;7.65;;;5.00;;
62796;SDS011;48839;48.546;-4.178;2024-03-08T03:42:16;8.20;;;4.50;;
62796;SDS011;48839;48.546;-4.178;2024-03-08T03:44:46;8.63;;;4.90;;
62796;SDS011;48839;48.546;-4.178;2024-03-08T03:47:13;9.50;;;4.72;;
62796;SDS011;48839;48.546;-4.178;2024-03-08T03:49:40;6.93;;;5.15;;
62796;SDS011;48839;48.546;-4.178;2024-03-08T03:52:06;9.80;;;5.30;;
62796;SDS011;48839;48.546;-4.178;2024-03-08T03:54:32;6.95;;;4.93;;
62796;SDS011;48839;48.546;-4.178;2024-03-08T03:56:58;7.32;;;4.65;;
62796;SDS011;48839;48.546;-4.178;2024-03-08T03:59:26;8.30;;;5.00;;
62796;SDS011;48839;48.546;-4.178;2024-03-08T04:01:52;7.82;;;4.85;;
62796;SDS011;48839;48.546;-4.178;2024-03-08T04:04:19;7.72;;;4.43;;
62796;SDS011;48839;48.546;-4.178;2024-03-08T04:06:46;6.53;;;4.72;;
62796;SDS011;48839;48.546;-4.178;2024-03-08T04:09:12;6.97;;;4.80;;
62796;SDS011;48839;48.546;-4.178;2024-03-08T04:11:39;5.35;;;3.92;;
62796;SDS011;48839;48.546;-4.178;2024-03-08T04:14:05;6.38;;;4.30;;
62796;SDS011;48839;48.546;-4.178;2024-03-08T04:16:31;9.23;;;4.53;;
62796;SDS011;48839;48.546;-4.178;2024-03-08T04:18:58;9.13;;;4.70;;
62796;SDS011;48839;48.546;-4.178;2024-03-08T04:21:24;8.45;;;4.97;;
62796;SDS011;48839;48.546;-4.178;2024-03-08T04:23:50;8.82;;;4.93;;
62796;SDS011;48839;48.546;-4.178;2024-03-08T04:26:16;9.23;;;5.10;;
62796;SDS011;48839;48.546;-4.178;2024-03-08T04:28:43;7.20;;;5.72;;
62796;SDS011;48839;48.546;-4.178;2024-03-08T04:31:09;7.68;;;4.72;;
62796;SDS011;48839;48.546;-4.178;2024-03-08T04:33:35;8.48;;;4.78;;
62796;SDS011;48839;48.546;-4.178;2024-03-08T04:36:02;8.35;;;5.00;;
62796;SDS011;48839;48.546;-4.178;2024-03-08T04:38:29;7.93;;;5.65;;
62796;SDS011;48839;48.546;-4.178;2024-03-08T04:40:56;6.38;;;4.72;;
62796;SDS011;48839;48.546;-4.178;2024-03-08T04:43:22;8.77;;;5.32;;
62796;SDS011;48839;48.546;-4.178;2024-03-08T04:45:51;7.75;;;4.65;;
62796;SDS011;48839;48.546;-4.178;2024-03-08T04:48:18;10.23;;;4.90;;
62796;SDS011;48839;48.546;-4.178;2024-03-08T04:50:45;7.30;;;4.35;;
62796;SDS011;48839;48.546;-4.178;2024-03-08T04:53:12;9.25;;;4.65;;
62796;SDS011;48839;48.546;-4.178;2024-03-08T04:55:38;9.13;;;4.53;;
62796;SDS011;48839;48.546;-4.178;2024-03-08T04:58:05;6.15;;;4.35;;
62796;SDS011;48839;48.546;-4.178;2024-03-08T05:00:31;7.50;;;5.10;;
62796;SDS011;48839;48.546;-4.178;2024-03-08T05:02:58;7.35;;;4.78;;
62796;SDS011;48839;48.546;-4.178;2024-03-08T05:05:24;8.18;;;4.30;;
62796;SDS011;48839;48.546;-4.178;2024-03-08T05:07:53;7.70;;;4.57;;
62796;SDS011;48839;48.546;-4.178;2024-03-08T05:10:20;7.15;;;4.70;;
62796;SDS011;48839;48.546;-4.178;2024-03-08T05:12:46;6.80;;;4.47;;
62796;SDS011;48839;48.546;-4.178;2024-03-08T05:15:13;7.82;;;4.20;;
62796;SDS011;48839;48.546;-4.178;2024-03-08T05:17:39;6.68;;;4.05;;
62796;SDS011;48839;48.546;-4.178;2024-03-08T05:20:07;7.95;;;5.10;;
62796;SDS011;48839;48.546;-4.178;2024-03-08T05:22:33;7.00;;;3.95;;
62796;SDS011;48839;48.546;-4.178;2024-03-08T05:25:00;7.32;;;4.57;;
62796;SDS011;48839;48.546;-4.178;2024-03-08T05:27:27;7.13;;;4.45;;
62796;SDS011;48839;48.546;-4.178;2024-03-08T05:29:53;6.40;;;4.38;;
62796;SDS011;48839;48.546;-4.178;2024-03-08T05:32:19;9.45;;;4.80;;
62796;SDS011;48839;48.546;-4.178;2024-03-08T05:34:46;8.52;;;4.60;;
62796;SDS011;48839;48.546;-4.178;2024-03-08T05:37:12;7.22;;;4.45;;
62796;SDS011;48839;48.546;-4.178;2024-03-08T05:39:38;6.78;;;4.50;;
62796;SDS011;48839;48.546;-4.178;2024-03-08T05:42:06;6.68;;;4.47;;
62796;SDS011;48839;48.546;-4.178;2024-03-08T05:44:33;8.45;;;3.80;;
62796;SDS011;48839;48.546;-4.178;2024-03-08T05:47:00;6.63;;;4.53;;
62796;SDS011;48839;48.546;-4.178;2024-03-08T05:49:26;8.15;;;5.07;;
62796;SDS011;48839;48.546;-4.178;2024-03-08T05:51:52;7.00;;;4.65;;
62796;SDS011;48839;48.546;-4.178;2024-03-08T05:54:19;5.75;;;4.43;;
62796;SDS011;48839;48.546;-4.178;2024-03-08T05:56:49;7.38;;;4.70;;
62796;SDS011;48839;48.546;-4.178;2024-03-08T05:59:17;6.80;;;4.70;;
62796;SDS011;48839;48.546;-4.178;2024-03-08T06:01:44;8.27;;;4.43;;
62796;SDS011;48839;48.546;-4.178;2024-03-08T06:04:11;14.40;;;7.47;;
62796;SDS011;48839;48.546;-4.178;2024-03-08T06:06:37;8.23;;;4.47;;
62796;SDS011;48839;48.546;-4.178;2024-03-08T06:09:03;13.52;;;6.00;;
62796;SDS011;48839;48.546;-4.178;2024-03-08T06:11:42;15.88;;;8.90;;
62796;SDS011;48839;48.546;-4.178;2024-03-08T06:14:08;7.35;;;4.97;;
62796;SDS011;48839;48.546;-4.178;2024-03-08T06:16:35;7.30;;;4.57;;
62796;SDS011;48839;48.546;-4.178;2024-03-08T06:19:01;8.32;;;4.95;;
62796;SDS011;48839;48.546;-4.178;2024-03-08T06:21:28;9.32;;;5.75;;
62796;SDS011;48839;48.546;-4.178;2024-03-08T06:23:54;13.57;;;5.63;;
62796;SDS011;48839;48.546;-4.178;2024-03-08T06:26:23;6.35;;;4.57;;
62796;SDS011;48839;48.546;-4.178;2024-03-08T06:28:50;9.90;;;5.88;;
62796;SDS011;48839;48.546;-4.178;2024-03-08T06:31:16;10.82;;;5.32;;
62796;SDS011;48839;48.546;-4.178;2024-03-08T06:33:42;8.07;;;5.05;;
62796;SDS011;48839;48.546;-4.178;2024-03-08T06:36:09;7.93;;;5.03;;
62796;SDS011;48839;48.546;-4.178;2024-03-08T06:38:36;7.70;;;5.38;;
62796;SDS011;48839;48.546;-4.178;2024-03-08T06:41:07;10.20;;;6.18;;
62796;SDS011;48839;48.546;-4.178;2024-03-08T06:43:33;10.27;;;5.88;;
62796;SDS011;48839;48.546;-4.178;2024-03-08T06:45:59;10.00;;;5.72;;
62796;SDS011;48839;48.546;-4.178;2024-03-08T06:48:26;9.18;;;6.00;;
62796;SDS011;48839;48.546;-4.178;2024-03-08T06:50:52;7.93;;;6.13;;
62796;SDS011;48839;48.546;-4.178;2024-03-08T06:53:18;8.45;;;5.00;;
62796;SDS011;48839;48.546;-4.178;2024-03-08T06:55:44;11.75;;;5.95;;
62796;SDS011;48839;48.546;-4.178;2024-03-08T06:58:11;9.77;;;5.55;;
62796;SDS011;48839;48.546;-4.178;2024-03-08T07:00:37;14.68;;;5.50;;
62796;SDS011;48839;48.546;-4.178;2024-03-08T07:03:03;10.35;;;7.13;;
62796;SDS011;48839;48.546;-4.178;2024-03-08T07:05:31;9.95;;;6.72;;
62796;SDS011;48839;48.546;-4.178;2024-03-08T07:07:57;8.18;;;5.03;;
62796;SDS011;48839;48.546;-4.178;2024-03-08T07:10:24;9.88;;;6.03;;
62796;SDS011;48839;48.546;-4.178;2024-03-08T07:12:51;10.18;;;6.43;;
62796;SDS011;48839;48.546;-4.178;2024-03-08T07:15:18;13.00;;;6.18;;
62796;SDS011;48839;48.546;-4.178;2024-03-08T07:17:47;12.48;;;7.63;;
62796;SDS011;48839;48.546;-4.178;2024-03-08T07:20:13;10.18;;;6.35;;
62796;SDS011;48839;48.546;-4.178;2024-03-08T07:22:44;10.25;;;5.40;;
62796;SDS011;48839;48.546;-4.178;2024-03-08T07:25:13;10.38;;;6.82;;
62796;SDS011;48839;48.546;-4.178;2024-03-08T07:27:55;12.00;;;5.88;;
62796;SDS011;48839;48.546;-4.178;2024-03-08T07:30:22;14.52;;;6.78;;
62796;SDS011;48839;48.546;-4.178;2024-03-08T07:33:07;8.45;;;5.85;;
62796;SDS011;48839;48.546;-4.178;2024-03-08T07:35:36;13.63;;;7.28;;
62796;SDS011;48839;48.546;-4.178;2024-03-08T07:38:11;12.23;;;5.93;;
62796;SDS011;48839;48.546;-4.178;2024-03-08T07:40:41;10.77;;;5.57;;
62796;SDS011;48839;48.546;-4.178;2024-03-08T07:43:10;13.50;;;5.88;;
62796;SDS011;48839;48.546;-4.178;2024-03-08T07:45:37;8.43;;;5.38;;
62796;SDS011;48839;48.546;-4.178;2024-03-08T07:48:04;8.18;;;5.57;;
62796;SDS011;48839;48.546;-4.178;2024-03-08T07:50:36;7.60;;;4.90;;
62796;SDS011;48839;48.546;-4.178;2024-03-08T07:53:02;7.22;;;5.18;;
62796;SDS011;48839;48.546;-4.178;2024-03-08T07:55:29;6.63;;;4.90;;
62796;SDS011;48839;48.546;-4.178;2024-03-08T07:57:56;7.32;;;4.22;;
62796;SDS011;48839;48.546;-4.178;2024-03-08T08:00:23;9.48;;;5.03;;
62796;SDS011;48839;48.546;-4.178;2024-03-08T08:02:49;7.97;;;4.70;;
62796;SDS011;48839;48.546;-4.178;2024-03-08T08:05:16;8.13;;;4.78;;
62796;SDS011;48839;48.546;-4.178;2024-03-08T08:07:46;7.07;;;4.90;;
62796;SDS011;48839;48.546;-4.178;2024-03-08T08:10:12;7.43;;;4.38;;
62796;SDS011;48839;48.546;-4.178;2024-03-08T08:12:43;8.57;;;5.13;;
62796;SDS011;48839;48.546;-4.178;2024-03-08T08:15:09;10.32;;;4.72;;
62796;SDS011;48839;48.546;-4.178;2024-03-08T08:17:35;8.88;;;5.15;;
62796;SDS011;48839;48.546;-4.178;2024-03-08T08:20:02;9.95;;;5.25;;
62796;SDS011;48839;48.546;-4.178;2024-03-08T08:22:30;10.27;;;5.38;;
62796;SDS011;48839;48.546;-4.178;2024-03-08T08:24:56;12.43;;;5.30;;
62796;SDS011;48839;48.546;-4.178;2024-03-08T08:27:22;8.05;;;5.05;;
62796;SDS011;48839;48.546;-4.178;2024-03-08T08:29:51;8.45;;;5.18;;
62796;SDS011;48839;48.546;-4.178;2024-03-08T08:32:17;10.23;;;5.85;;
62796;SDS011;48839;48.546;-4.178;2024-03-08T08:34:44;10.20;;;5.88;;
62796;SDS011;48839;48.546;-4.178;2024-03-08T08:37:10;8.52;;;5.68;;
62796;SDS011;48839;48.546;-4.178;2024-03-08T08:39:36;9.35;;;5.05;;
62796;SDS011;48839;48.546;-4.178;2024-03-08T08:42:03;7.55;;;5.10;;
62796;SDS011;48839;48.546;-4.178;2024-03-08T08:44:29;8.38;;;5.45;;
62796;SDS011;48839;48.546;-4.178;2024-03-08T08:46:56;5.80;;;4.40;;
62796;SDS011;48839;48.546;-4.178;2024-03-08T08:49:23;10.38;;;5.35;;
62796;SDS011;48839;48.546;-4.178;2024-03-08T08:51:51;6.53;;;4.88;;
62796;SDS011;48839;48.546;-4.178;2024-03-08T08:54:17;9.98;;;5.15;;
62796;SDS011;48839;48.546;-4.178;2024-03-08T08:56:45;7.60;;;4.80;;
62796;SDS011;48839;48.546;-4.178;2024-03-08T08:59:14;9.55;;;5.50;;
62796;SDS011;48839;48.546;-4.178;2024-03-08T09:01:44;9.75;;;5.28;;
62796;SDS011;48839;48.546;-4.178;2024-03-08T09:04:12;8.60;;;4.68;;
62796;SDS011;48839;48.546;-4.178;2024-03-08T09:06:38;10.52;;;6.10;;
62796;SDS011;48839;48.546;-4.178;2024-03-08T09:09:09;10.48;;;5.22;;
62796;SDS011;48839;48.546;-4.178;2024-03-08T09:11:36;7.60;;;4.30;;
62796;SDS011;48839;48.546;-4.178;2024-03-08T09:14:06;9.35;;;5.35;;
62796;SDS011;48839;48.546;-4.178;2024-03-08T09:16:33;7.53;;;5.13;;
62796;SDS011;48839;48.546;-4.178;2024-03-08T09:18:59;10.15;;;4.60;;
62796;SDS011;48839;48.546;-4.178;2024-03-08T09:21:25;9.30;;;5.40;;
62796;SDS011;48839;48.546;-4.178;2024-03-08T09:23:52;7.43;;;5.25;;
62796;SDS011;48839;48.546;-4.178;2024-03-08T09:26:19;10.48;;;5.78;;
62796;SDS011;48839;48.546;-4.178;2024-03-08T09:28:45;10.65;;;5.70;;
62796;SDS011;48839;48.546;-4.178;2024-03-08T09:31:11;9.07;;;5.35;;
62796;SDS011;48839;48.546;-4.178;2024-03-08T09:33:38;11.48;;;5.32;;
62796;SDS011;48839;48.546;-4.178;2024-03-08T09:36:07;9.23;;;5.47;;
62796;SDS011;48839;48.546;-4.178;2024-03-08T09:38:33;10.00;;;5.60;;
62796;SDS011;48839;48.546;-4.178;2024-03-08T09:41:00;9.65;;;5.68;;
62796;SDS011;48839;48.546;-4.178;2024-03-08T09:43:27;10.13;;;5.63;;
62796;SDS011;48839;48.546;-4.178;2024-03-08T09:45:54;9.32;;;5.88;;
62796;SDS011;48839;48.546;-4.178;2024-03-08T09:48:21;9.95;;;5.05;;
62796;SDS011;48839;48.546;-4.178;2024-03-08T09:50:48;9.98;;;5.78;;
62796;SDS011;48839;48.546;-4.178;2024-03-08T09:53:14;12.07;;;6.25;;
62796;SDS011;48839;48.546;-4.178;2024-03-08T09:55:41;10.00;;;5.47;;
62796;SDS011;48839;48.546;-4.178;2024-03-08T09:58:11;11.02;;;5.20;;
62796;SDS011;48839;48.546;-4.178;2024-03-08T10:00:56;8.90;;;5.00;;
62796;SDS011;48839;48.546;-4.178;2024-03-08T10:03:23;7.65;;;5.10;;
62796;SDS011;48839;48.546;-4.178;2024-03-08T10:05:51;13.10;;;6.03;;
62796;SDS011;48839;48.546;-4.178;2024-03-08T10:08:17;8.57;;;4.68;;
62796;SDS011;48839;48.546;-4.178;2024-03-08T10:10:45;6.82;;;5.03;;
62796;SDS011;48839;48.546;-4.178;2024-03-08T10:13:11;8.25;;;4.85;;
62796;SDS011;48839;48.546;-4.178;2024-03-08T10:15:39;7.63;;;4.95;;
62796;SDS011;48839;48.546;-4.178;2024-03-08T10:18:05;8.13;;;5.35;;
62796;SDS011;48839;48.546;-4.178;2024-03-08T10:20:32;12.32;;;5.68;;
62796;SDS011;48839;48.546;-4.178;2024-03-08T10:23:01;9.70;;;5.50;;
62796;SDS011;48839;48.546;-4.178;2024-03-08T10:25:30;9.75;;;5.13;;
62796;SDS011;48839;48.546;-4.178;2024-03-08T10:27:56;7.38;;;4.85;;
62796;SDS011;48839;48.546;-4.178;2024-03-08T10:30:22;15.05;;;5.85;;
62796;SDS011;48839;48.546;-4.178;2024-03-08T10:32:49;6.93;;;4.40;;
62796;SDS011;48839;48.546;-4.178;2024-03-08T10:35:17;10.57;;;4.70;;
62796;SDS011;48839;48.546;-4.178;2024-03-08T10:37:50;12.13;;;4.93;;
62796;SDS011;48839;48.546;-4.178;2024-03-08T10:40:28;8.50;;;5.15;;
62796;SDS011;48839;48.546;-4.178;2024-03-08T10:42:55;9.50;;;4.35;;
62796;SDS011;48839;48.546;-4.178;2024-03-08T10:50:32;8.60;;;3.60;;
62796;SDS011;48839;48.546;-4.178;2024-03-08T10:52:59;6.60;;;3.83;;
62796;SDS011;48839;48.546;-4.178;2024-03-08T10:55:26;6.85;;;3.80;;
62796;SDS011;48839;48.546;-4.178;2024-03-08T10:57:53;6.95;;;3.90;;
62796;SDS011;48839;48.546;-4.178;2024-03-08T11:00:20;6.90;;;3.88;;
62796;SDS011;48839;48.546;-4.178;2024-03-08T11:02:55;5.13;;;3.28;;
62796;SDS011;48839;48.546;-4.178;2024-03-08T11:08:17;6.32;;;3.90;;
62796;SDS011;48839;48.546;-4.178;2024-03-08T11:10:50;4.68;;;3.40;;
62796;SDS011;48839;48.546;-4.178;2024-03-08T11:16:02;6.35;;;3.42;;
62796;SDS011;48839;48.546;-4.178;2024-03-08T11:18:34;4.07;;;3.67;;
62796;SDS011;48839;48.546;-4.178;2024-03-08T11:21:04;7.68;;;3.40;;
62796;SDS011;48839;48.546;-4.178;2024-03-08T11:23:32;5.45;;;3.80;;
62796;SDS011;48839;48.546;-4.178;2024-03-08T11:25:59;4.18;;;3.38;;
62796;SDS011;48839;48.546;-4.178;2024-03-08T11:28:25;7.43;;;3.90;;
62796;SDS011;48839;48.546;-4.178;2024-03-08T11:33:24;5.75;;;3.50;;
62796;SDS011;48839;48.546;-4.178;2024-03-08T11:35:52;4.63;;;2.70;;
62796;SDS011;48839;48.546;-4.178;2024-03-08T11:38:18;5.32;;;3.40;;
62796;SDS011;48839;48.546;-4.178;2024-03-08T11:40:47;5.22;;;2.90;;
62796;SDS011;48839;48.546;-4.178;2024-03-08T11:43:17;6.10;;;3.33;;
62796;SDS011;48839;48.546;-4.178;2024-03-08T11:45:43;5.45;;;3.00;;
62796;SDS011;48839;48.546;-4.178;2024-03-08T11:48:09;5.50;;;3.33;;
62796;SDS011;48839;48.546;-4.178;2024-03-08T11:50:38;4.63;;;3.17;;
62796;SDS011;48839;48.546;-4.178;2024-03-08T11:53:04;3.75;;;2.60;;
62796;SDS011;48839;48.546;-4.178;2024-03-08T11:55:31;4.20;;;3.10;;
62796;SDS011;48839;48.546;-4.178;2024-03-08T11:58:04;3.17;;;2.70;;
62796;SDS011;48839;48.546;-4.178;2024-03-08T12:00:30;7.35;;;3.03;;
62796;SDS011;48839;48.546;-4.178;2024-03-08T12:05:29;3.70;;;2.75;;
62796;SDS011;48839;48.546;-4.178;2024-03-08T12:07:59;6.13;;;2.88;;
62796;SDS011;48839;48.546;-4.178;2024-03-08T12:10:25;3.78;;;2.50;;
62796;SDS011;48839;48.546;-4.178;2024-03-08T12:12:53;8.38;;;2.60;;
62796;SDS011;48839;48.546;-4.178;2024-03-08T12:15:20;4.43;;;2.70;;
62796;SDS011;48839;48.546;-4.178;2024-03-08T12:17:47;2.80;;;2.40;;
62796;SDS011;48839;48.546;-4.178;2024-03-08T12:20:17;4.30;;;2.50;;
62796;SDS011;48839;48.546;-4.178;2024-03-08T12:22:44;6.10;;;2.83;;
62796;SDS011;48839;48.546;-4.178;2024-03-08T12:25:11;3.28;;;2.75;;
62796;SDS011;48839;48.546;-4.178;2024-03-08T12:27:40;3.40;;;2.50;;
62796;SDS011;48839;48.546;-4.178;2024-03-08T12:32:46;3.55;;;2.45;;
62796;SDS011;48839;48.546;-4.178;2024-03-08T12:35:12;3.13;;;2.53;;
62796;SDS011;48839;48.546;-4.178;2024-03-08T12:37:39;3.65;;;2.80;;
62796;SDS011;48839;48.546;-4.178;2024-03-08T12:40:08;3.65;;;2.63;;
62796;SDS011;48839;48.546;-4.178;2024-03-08T12:42:35;4.30;;;2.67;;
62796;SDS011;48839;48.546;-4.178;2024-03-08T12:45:02;3.92;;;2.80;;
62796;SDS011;48839;48.546;-4.178;2024-03-08T12:47:29;6.20;;;2.63;;
62796;SDS011;48839;48.546;-4.178;2024-03-08T12:49:56;3.88;;;2.17;;
62796;SDS011;48839;48.546;-4.178;2024-03-08T12:52:23;3.72;;;1.92;;
62796;SDS011;48839;48.546;-4.178;2024-03-08T12:54:49;2.97;;;2.20;;
62796;SDS011;48839;48.546;-4.178;2024-03-08T12:57:15;5.28;;;2.55;;
62796;SDS011;48839;48.546;-4.178;2024-03-08T12:59:41;4.20;;;2.58;;
62796;SDS011;48839;48.546;-4.178;2024-03-08T13:02:07;5.10;;;2.30;;
62796;SDS011;48839;48.546;-4.178;2024-03-08T13:04:36;4.57;;;2.60;;
62796;SDS011;48839;48.546;-4.178;2024-03-08T13:07:03;5.07;;;2.40;;
62796;SDS011;48839;48.546;-4.178;2024-03-08T13:09:29;4.50;;;2.78;;
62796;SDS011;48839;48.546;-4.178;2024-03-08T13:11:56;3.85;;;2.42;;
62796;SDS011;48839;48.546;-4.178;2024-03-08T13:14:25;5.68;;;2.45;;
62796;SDS011;48839;48.546;-4.178;2024-03-08T13:16:52;4.28;;;2.60;;
62796;SDS011;48839;48.546;-4.178;2024-03-08T13:19:19;4.20;;;2.45;;
62796;SDS011;48839;48.546;-4.178;2024-03-08T13:21:47;3.20;;;2.47;;
62796;SDS011;48839;48.546;-4.178;2024-03-08T13:24:16;7.07;;;2.90;;
62796;SDS011;48839;48.546;-4.178;2024-03-08T13:26:44;4.93;;;2.60;;
62796;SDS011;48839;48.546;-4.178;2024-03-08T13:29:10;4.13;;;2.58;;
62796;SDS011;48839;48.546;-4.178;2024-03-08T13:31:36;3.15;;;2.65;;
62796;SDS011;48839;48.546;-4.178;2024-03-08T13:34:02;4.28;;;2.65;;
62796;SDS011;48839;48.546;-4.178;2024-03-08T13:36:30;3.17;;;2.45;;
62796;SDS011;48839;48.546;-4.178;2024-03-08T13:41:40;4.07;;;2.20;;
62796;SDS011;48839;48.546;-4.178;2024-03-08T13:44:07;5.38;;;2.17;;
62796;SDS011;48839;48.546;-4.178;2024-03-08T13:46:33;5.07;;;2.83;;
62796;SDS011;48839;48.546;-4.178;2024-03-08T13:49:05;3.70;;;2.33;;
62796;SDS011;48839;48.546;-4.178;2024-03-08T13:51:33;3.28;;;2.20;;
62796;SDS011;48839;48.546;-4.178;2024-03-08T13:53:59;3.53;;;2.28;;
62796;SDS011;48839;48.546;-4.178;2024-03-08T13:56:26;4.45;;;1.98;;
62796;SDS011;48839;48.546;-4.178;2024-03-08T13:58:52;5.28;;;2.10;;
62796;SDS011;48839;48.546;-4.178;2024-03-08T14:01:21;4.20;;;2.38;;
62796;SDS011;48839;48.546;-4.178;2024-03-08T14:03:47;4.07;;;1.90;;
62796;SDS011;48839;48.546;-4.178;2024-03-08T14:06:13;4.82;;;2.00;;
62796;SDS011;48839;48.546;-4.178;2024-03-08T14:08:41;2.90;;;1.88;;
62796;SDS011;48839;48.546;-4.178;2024-03-08T14:11:07;4.47;;;2.17;;
62796;SDS011;48839;48.546;-4.178;2024-03-08T14:13:43;4.97;;;2.45;;
62796;SDS011;48839;48.546;-4.178;2024-03-08T14:16:10;5.85;;;2.33;;
62796;SDS011;48839;48.546;-4.178;2024-03-08T14:18:37;3.22;;;1.88;;
62796;SDS011;48839;48.546;-4.178;2024-03-08T14:21:03;3.00;;;2.33;;
62796;SDS011;48839;48.546;-4.178;2024-03-08T14:23:30;4.25;;;2.10;;
62796;SDS011;48839;48.546;-4.178;2024-03-08T14:25:58;6.43;;;2.38;;
62796;SDS011;48839;48.546;-4.178;2024-03-08T14:28:24;4.50;;;2.22;;
62796;SDS011;48839;48.546;-4.178;2024-03-08T14:30:52;5.03;;;2.80;;
62796;SDS011;48839;48.546;-4.178;2024-03-08T14:33:18;6.35;;;3.20;;
62796;SDS011;48839;48.546;-4.178;2024-03-08T14:35:45;2.83;;;2.30;;
62796;SDS011;48839;48.546;-4.178;2024-03-08T14:38:12;5.93;;;2.70;;
62796;SDS011;48839;48.546;-4.178;2024-03-08T14:40:38;5.15;;;1.98;;
62796;SDS011;48839;48.546;-4.178;2024-03-08T14:43:05;3.67;;;2.17;;
62796;SDS011;48839;48.546;-4.178;2024-03-08T14:45:31;5.28;;;2.15;;
62796;SDS011;48839;48.546;-4.178;2024-03-08T14:47:58;3.22;;;2.00;;
62796;SDS011;48839;48.546;-4.178;2024-03-08T14:50:24;4.72;;;1.95;;
62796;SDS011;48839;48.546;-4.178;2024-03-08T14:52:51;3.90;;;1.75;;
62796;SDS011;48839;48.546;-4.178;2024-03-08T14:55:18;5.07;;;2.13;;